sensor_id;sensor_type;location;lat;lon;timestamp;temperature;humidity
21214;DHT22;10764;50.850;2.904;2023-02-19T00:01:34;18.50;60.40
21214;DHT22;10764;50.850;2.904;2023-02-19T00:04:03;17.90;60.10
21214;DHT22;10764;50.850;2.904;2023-02-19T00:06:32;18.00;60.10
21214;DHT22;10764;50.850;2.904;2023-02-19T00:08:59;17.90;60.10
21214;DHT22;10764;50.850;2.904;2023-02-19T00:11:28;18.00;60.10
21214;DHT22;10764;50.850;2.904;2023-02-19T00:13:56;18.00;60.10
21214;DHT22;10764;50.850;2.904;2023-02-19T00:16:29;18.80;60.60
21214;DHT22;10764;50.850;2.904;2023-02-19T00:18:56;17.90;60.10
21214;DHT22;10764;50.850;2.904;2023-02-19T00:21:24;18.00;60.20
21214;DHT22;10764;50.850;2.904;2023-02-19T00:23:51;18.00;60.20
21214;DHT22;10764;50.850;2.904;2023-02-19T00:26:18;18.00;60.20
21214;DHT22;10764;50.850;2.904;2023-02-19T00:28:47;18.00;60.20
21214;DHT22;10764;50.850;2.904;2023-02-19T00:33:45;18.00;60.10
21214;DHT22;10764;50.850;2.904;2023-02-19T00:36:12;18.70;60.60
21214;DHT22;10764;50.850;2.904;2023-02-19T00:38:40;18.00;60.10
21214;DHT22;10764;50.850;2.904;2023-02-19T00:41:08;18.00;60.20
21214;DHT22;10764;50.850;2.904;2023-02-19T00:44:04;20.10;61.40
21214;DHT22;10764;50.850;2.904;2023-02-19T00:46:33;18.00;60.20
21214;DHT22;10764;50.850;2.904;2023-02-19T00:49:04;20.70;61.80
21214;DHT22;10764;50.850;2.904;2023-02-19T00:51:35;18.10;60.20
21214;DHT22;10764;50.850;2.904;2023-02-19T00:54:04;18.00;60.10
21214;DHT22;10764;50.850;2.904;2023-02-19T00:56:30;18.60;60.50
21214;DHT22;10764;50.850;2.904;2023-02-19T00:58:57;18.00;60.20
21214;DHT22;10764;50.850;2.904;2023-02-19T01:01:24;18.00;60.20
21214;DHT22;10764;50.850;2.904;2023-02-19T01:03:51;19.50;61.20
21214;DHT22;10764;50.850;2.904;2023-02-19T01:06:19;21.30;62.30
21214;DHT22;10764;50.850;2.904;2023-02-19T01:08:46;19.10;60.80
21214;DHT22;10764;50.850;2.904;2023-02-19T01:11:14;18.50;60.50
21214;DHT22;10764;50.850;2.904;2023-02-19T01:13:41;19.10;60.90
21214;DHT22;10764;50.850;2.904;2023-02-19T01:16:14;19.70;61.20
21214;DHT22;10764;50.850;2.904;2023-02-19T01:18:42;19.90;61.30
21214;DHT22;10764;50.850;2.904;2023-02-19T01:21:12;20.80;61.80
21214;DHT22;10764;50.850;2.904;2023-02-19T01:23:40;20.80;61.80
21214;DHT22;10764;50.850;2.904;2023-02-19T01:26:11;18.10;60.20
21214;DHT22;10764;50.850;2.904;2023-02-19T01:28:38;20.90;61.90
21214;DHT22;10764;50.850;2.904;2023-02-19T01:31:07;19.10;60.80
21214;DHT22;10764;50.850;2.904;2023-02-19T01:33:36;18.20;60.20
21214;DHT22;10764;50.850;2.904;2023-02-19T01:36:03;19.40;61.00
21214;DHT22;10764;50.850;2.904;2023-02-19T01:38:30;18.00;60.10
21214;DHT22;10764;50.850;2.904;2023-02-19T01:41:03;17.90;60.00
21214;DHT22;10764;50.850;2.904;2023-02-19T01:43:30;18.50;60.30
21214;DHT22;10764;50.850;2.904;2023-02-19T01:45:57;18.00;60.10
21214;DHT22;10764;50.850;2.904;2023-02-19T01:48:31;20.10;61.40
21214;DHT22;10764;50.850;2.904;2023-02-19T01:51:12;18.80;60.60
21214;DHT22;10764;50.850;2.904;2023-02-19T01:53:44;18.50;60.40
21214;DHT22;10764;50.850;2.904;2023-02-19T01:56:12;18.00;60.00
21214;DHT22;10764;50.850;2.904;2023-02-19T01:58:41;18.00;60.00
21214;DHT22;10764;50.850;2.904;2023-02-19T02:01:08;18.00;60.00
21214;DHT22;10764;50.850;2.904;2023-02-19T02:03:36;18.00;60.10
21214;DHT22;10764;50.850;2.904;2023-02-19T02:06:08;18.00;60.00
21214;DHT22;10764;50.850;2.904;2023-02-19T02:08:36;18.00;60.00
21214;DHT22;10764;50.850;2.904;2023-02-19T02:11:22;18.00;60.10
21214;DHT22;10764;50.850;2.904;2023-02-19T02:13:50;20.30;61.50
21214;DHT22;10764;50.850;2.904;2023-02-19T02:21:29;18.00;60.00
21214;DHT22;10764;50.850;2.904;2023-02-19T02:24:31;18.00;60.00
21214;DHT22;10764;50.850;2.904;2023-02-19T02:32:16;18.00;60.00
21214;DHT22;10764;50.850;2.904;2023-02-19T02:34:47;18.10;60.10
21214;DHT22;10764;50.850;2.904;2023-02-19T02:37:15;15.90;59.00
21214;DHT22;10764;50.850;2.904;2023-02-19T02:39:42;18.00;60.10
21214;DHT22;10764;50.850;2.904;2023-02-19T02:42:10;18.00;60.10
21214;DHT22;10764;50.850;2.904;2023-02-19T02:45:41;18.10;60.10
21214;DHT22;10764;50.850;2.904;2023-02-19T02:48:08;18.10;60.20
21214;DHT22;10764;50.850;2.904;2023-02-19T02:50:49;18.00;60.10
21214;DHT22;10764;50.850;2.904;2023-02-19T02:53:17;18.00;60.10
21214;DHT22;10764;50.850;2.904;2023-02-19T02:56:04;18.00;60.10
21214;DHT22;10764;50.850;2.904;2023-02-19T02:58:33;18.00;60.10
21214;DHT22;10764;50.850;2.904;2023-02-19T03:01:04;18.00;60.10
21214;DHT22;10764;50.850;2.904;2023-02-19T03:03:56;18.10;60.20
21214;DHT22;10764;50.850;2.904;2023-02-19T03:06:26;19.40;61.00
21214;DHT22;10764;50.850;2.904;2023-02-19T03:11:21;18.00;60.10
21214;DHT22;10764;50.850;2.904;2023-02-19T03:14:10;20.60;61.70
21214;DHT22;10764;50.850;2.904;2023-02-19T03:17:01;18.00;60.10
21214;DHT22;10764;50.850;2.904;2023-02-19T03:19:49;20.00;61.30
21214;DHT22;10764;50.850;2.904;2023-02-19T03:22:21;18.10;60.20
21214;DHT22;10764;50.850;2.904;2023-02-19T03:24:55;18.10;60.20
21214;DHT22;10764;50.850;2.904;2023-02-19T03:27:41;18.00;60.10
21214;DHT22;10764;50.850;2.904;2023-02-19T03:30:10;18.00;60.10
21214;DHT22;10764;50.850;2.904;2023-02-19T03:32:39;18.00;60.20
21214;DHT22;10764;50.850;2.904;2023-02-19T03:35:16;18.00;60.10
21214;DHT22;10764;50.850;2.904;2023-02-19T03:37:46;18.10;60.20
21214;DHT22;10764;50.850;2.904;2023-02-19T03:40:14;18.00;60.10
21214;DHT22;10764;50.850;2.904;2023-02-19T03:53:53;18.00;60.10
21214;DHT22;10764;50.850;2.904;2023-02-19T03:56:31;18.00;60.10
21214;DHT22;10764;50.850;2.904;2023-02-19T03:59:07;18.10;60.20
21214;DHT22;10764;50.850;2.904;2023-02-19T04:01:40;18.10;60.20
21214;DHT22;10764;50.850;2.904;2023-02-19T04:04:19;18.10;60.20
21214;DHT22;10764;50.850;2.904;2023-02-19T04:06:49;18.10;60.10
21214;DHT22;10764;50.850;2.904;2023-02-19T04:09:18;18.10;60.20
21214;DHT22;10764;50.850;2.904;2023-02-19T04:11:50;18.10;60.20
21214;DHT22;10764;50.850;2.904;2023-02-19T04:14:19;18.00;60.10
21214;DHT22;10764;50.850;2.904;2023-02-19T04:16:49;18.10;60.20
21214;DHT22;10764;50.850;2.904;2023-02-19T04:19:18;18.00;60.10
21214;DHT22;10764;50.850;2.904;2023-02-19T04:21:46;18.10;60.10
21214;DHT22;10764;50.850;2.904;2023-02-19T04:24:18;18.10;60.10
21214;DHT22;10764;50.850;2.904;2023-02-19T04:26:47;18.10;60.20
21214;DHT22;10764;50.850;2.904;2023-02-19T04:29:14;18.00;60.10
21214;DHT22;10764;50.850;2.904;2023-02-19T04:31:40;21.10;62.00
21214;DHT22;10764;50.850;2.904;2023-02-19T04:34:07;19.40;61.00
21214;DHT22;10764;50.850;2.904;2023-02-19T04:36:34;19.10;60.70
21214;DHT22;10764;50.850;2.904;2023-02-19T04:39:01;18.10;60.10
21214;DHT22;10764;50.850;2.904;2023-02-19T04:41:28;19.40;60.90
21214;DHT22;10764;50.850;2.904;2023-02-19T04:43:54;18.10;60.10
21214;DHT22;10764;50.850;2.904;2023-02-19T04:46:21;18.00;60.10
21214;DHT22;10764;50.850;2.904;2023-02-19T04:48:48;18.00;60.00
21214;DHT22;10764;50.850;2.904;2023-02-19T04:51:14;18.00;60.00
21214;DHT22;10764;50.850;2.904;2023-02-19T04:53:41;20.80;61.80
21214;DHT22;10764;50.850;2.904;2023-02-19T04:56:09;19.70;61.00
21214;DHT22;10764;50.850;2.904;2023-02-19T04:58:36;18.10;60.00
21214;DHT22;10764;50.850;2.904;2023-02-19T05:01:03;18.00;60.00
21214;DHT22;10764;50.850;2.904;2023-02-19T05:03:30;20.20;61.40
21214;DHT22;10764;50.850;2.904;2023-02-19T05:05:56;18.00;60.00
21214;DHT22;10764;50.850;2.904;2023-02-19T05:08:23;18.10;60.00
21214;DHT22;10764;50.850;2.904;2023-02-19T05:10:50;18.00;60.00
21214;DHT22;10764;50.850;2.904;2023-02-19T05:13:16;18.00;60.00
21214;DHT22;10764;50.850;2.904;2023-02-19T05:15:52;18.10;60.10
21214;DHT22;10764;50.850;2.904;2023-02-19T05:18:19;18.10;60.00
21214;DHT22;10764;50.850;2.904;2023-02-19T05:20:46;18.00;60.00
21214;DHT22;10764;50.850;2.904;2023-02-19T05:23:12;18.10;60.00
21214;DHT22;10764;50.850;2.904;2023-02-19T05:25:40;18.00;59.90
21214;DHT22;10764;50.850;2.904;2023-02-19T05:28:07;18.10;60.00
21214;DHT22;10764;50.850;2.904;2023-02-19T05:30:47;18.00;59.90
21214;DHT22;10764;50.850;2.904;2023-02-19T05:33:14;18.10;59.90
21214;DHT22;10764;50.850;2.904;2023-02-19T05:35:42;18.00;59.90
21214;DHT22;10764;50.850;2.904;2023-02-19T05:38:08;18.10;59.90
21214;DHT22;10764;50.850;2.904;2023-02-19T05:40:35;18.10;59.90
21214;DHT22;10764;50.850;2.904;2023-02-19T05:43:02;18.00;59.90
21214;DHT22;10764;50.850;2.904;2023-02-19T05:45:29;18.10;59.90
21214;DHT22;10764;50.850;2.904;2023-02-19T05:47:56;19.60;60.80
21214;DHT22;10764;50.850;2.904;2023-02-19T05:50:23;18.00;59.90
21214;DHT22;10764;50.850;2.904;2023-02-19T05:52:50;18.10;59.90
21214;DHT22;10764;50.850;2.904;2023-02-19T05:55:17;18.00;59.80
21214;DHT22;10764;50.850;2.904;2023-02-19T05:57:46;18.00;59.80
21214;DHT22;10764;50.850;2.904;2023-02-19T06:00:18;18.60;60.10
21214;DHT22;10764;50.850;2.904;2023-02-19T06:02:45;18.00;59.80
21214;DHT22;10764;50.850;2.904;2023-02-19T06:05:12;18.10;59.90
21214;DHT22;10764;50.850;2.904;2023-02-19T06:07:39;18.00;59.80
21214;DHT22;10764;50.850;2.904;2023-02-19T06:10:10;18.80;60.30
21214;DHT22;10764;50.850;2.904;2023-02-19T06:12:38;18.00;59.80
21214;DHT22;10764;50.850;2.904;2023-02-19T06:15:05;18.90;60.30
21214;DHT22;10764;50.850;2.904;2023-02-19T06:17:33;18.00;59.70
21214;DHT22;10764;50.850;2.904;2023-02-19T06:20:00;19.30;60.50
21214;DHT22;10764;50.850;2.904;2023-02-19T06:22:27;20.00;61.00
21214;DHT22;10764;50.850;2.904;2023-02-19T06:24:54;19.70;60.70
21214;DHT22;10764;50.850;2.904;2023-02-19T06:27:21;19.70;60.70
21214;DHT22;10764;50.850;2.904;2023-02-19T06:29:48;20.70;61.40
21214;DHT22;10764;50.850;2.904;2023-02-19T06:32:14;19.10;60.40
21214;DHT22;10764;50.850;2.904;2023-02-19T06:34:41;20.10;61.10
21214;DHT22;10764;50.850;2.904;2023-02-19T06:37:08;18.50;60.10
21214;DHT22;10764;50.850;2.904;2023-02-19T06:39:35;19.70;60.90
21214;DHT22;10764;50.850;2.904;2023-02-19T06:42:02;18.00;59.80
21214;DHT22;10764;50.850;2.904;2023-02-19T06:44:29;18.10;59.80
21214;DHT22;10764;50.850;2.904;2023-02-19T06:46:55;18.90;60.30
21214;DHT22;10764;50.850;2.904;2023-02-19T06:49:22;20.90;61.50
21214;DHT22;10764;50.850;2.904;2023-02-19T06:51:49;19.60;60.60
21214;DHT22;10764;50.850;2.904;2023-02-19T06:54:16;19.00;60.20
21214;DHT22;10764;50.850;2.904;2023-02-19T06:56:43;18.80;60.10
21214;DHT22;10764;50.850;2.904;2023-02-19T06:59:14;18.10;59.70
21214;DHT22;10764;50.850;2.904;2023-02-19T07:01:44;20.30;60.90
21214;DHT22;10764;50.850;2.904;2023-02-19T07:04:11;18.00;59.70
21214;DHT22;10764;50.850;2.904;2023-02-19T07:06:38;20.70;61.20
21214;DHT22;10764;50.850;2.904;2023-02-19T07:09:06;20.10;60.80
21214;DHT22;10764;50.850;2.904;2023-02-19T07:11:35;19.40;60.30
21214;DHT22;10764;50.850;2.904;2023-02-19T07:14:04;18.70;59.80
21214;DHT22;10764;50.850;2.904;2023-02-19T07:16:33;18.00;59.50
21214;DHT22;10764;50.850;2.904;2023-02-19T07:19:00;18.40;59.70
21214;DHT22;10764;50.850;2.904;2023-02-19T07:21:28;20.40;60.90
21214;DHT22;10764;50.850;2.904;2023-02-19T07:23:55;18.70;59.80
21214;DHT22;10764;50.850;2.904;2023-02-19T07:26:23;18.00;59.40
21214;DHT22;10764;50.850;2.904;2023-02-19T07:28:50;19.30;60.20
21214;DHT22;10764;50.850;2.904;2023-02-19T07:31:18;18.40;59.70
21214;DHT22;10764;50.850;2.904;2023-02-19T07:33:46;18.10;59.50
21214;DHT22;10764;50.850;2.904;2023-02-19T07:36:13;18.80;59.90
21214;DHT22;10764;50.850;2.904;2023-02-19T07:38:40;18.10;59.50
21214;DHT22;10764;50.850;2.904;2023-02-19T07:41:07;19.20;60.10
21214;DHT22;10764;50.850;2.904;2023-02-19T07:43:36;19.60;60.20
21214;DHT22;10764;50.850;2.904;2023-02-19T07:46:12;20.00;60.40
21214;DHT22;10764;50.850;2.904;2023-02-19T07:48:40;20.70;60.80
21214;DHT22;10764;50.850;2.904;2023-02-19T07:51:10;18.90;59.70
21214;DHT22;10764;50.850;2.904;2023-02-19T07:53:37;18.10;59.30
21214;DHT22;10764;50.850;2.904;2023-02-19T07:56:06;18.10;59.30
21214;DHT22;10764;50.850;2.904;2023-02-19T07:58:33;19.20;59.70
21214;DHT22;10764;50.850;2.904;2023-02-19T08:01:16;18.70;59.40
21214;DHT22;10764;50.850;2.904;2023-02-19T08:03:44;18.10;59.10
21214;DHT22;10764;50.850;2.904;2023-02-19T08:06:11;18.90;59.50
21214;DHT22;10764;50.850;2.904;2023-02-19T08:08:39;18.10;59.00
21214;DHT22;10764;50.850;2.904;2023-02-19T08:11:06;18.20;59.30
21214;DHT22;10764;50.850;2.904;2023-02-19T08:13:52;18.60;59.50
21214;DHT22;10764;50.850;2.904;2023-02-19T08:16:19;20.80;61.30
21214;DHT22;10764;50.850;2.904;2023-02-19T08:19:02;20.80;61.30
21214;DHT22;10764;50.850;2.904;2023-02-19T08:21:29;20.20;60.20
21214;DHT22;10764;50.850;2.904;2023-02-19T08:23:59;18.70;59.30
21214;DHT22;10764;50.850;2.904;2023-02-19T08:26:25;20.00;59.80
21214;DHT22;10764;50.850;2.904;2023-02-19T08:28:52;18.80;59.30
21214;DHT22;10764;50.850;2.904;2023-02-19T08:31:19;18.10;58.90
21214;DHT22;10764;50.850;2.904;2023-02-19T08:33:46;20.40;60.00
21214;DHT22;10764;50.850;2.904;2023-02-19T08:36:12;18.10;58.80
21214;DHT22;10764;50.850;2.904;2023-02-19T08:38:39;20.50;60.00
21214;DHT22;10764;50.850;2.904;2023-02-19T08:41:08;19.80;59.60
21214;DHT22;10764;50.850;2.904;2023-02-19T08:43:36;19.10;59.20
21214;DHT22;10764;50.850;2.904;2023-02-19T08:46:04;19.90;59.60
21214;DHT22;10764;50.850;2.904;2023-02-19T08:48:32;19.70;59.60
21214;DHT22;10764;50.850;2.904;2023-02-19T08:51:02;19.50;59.70
21214;DHT22;10764;50.850;2.904;2023-02-19T08:53:31;19.60;60.20
21214;DHT22;10764;50.850;2.904;2023-02-19T08:56:02;20.00;60.40
21214;DHT22;10764;50.850;2.904;2023-02-19T08:58:29;19.60;60.60
21214;DHT22;10764;50.850;2.904;2023-02-19T09:00:58;21.10;61.50
21214;DHT22;10764;50.850;2.904;2023-02-19T09:03:25;18.10;59.80
21214;DHT22;10764;50.850;2.904;2023-02-19T09:05:52;20.80;61.50
21214;DHT22;10764;50.850;2.904;2023-02-19T09:08:18;18.10;59.80
21214;DHT22;10764;50.850;2.904;2023-02-19T09:10:56;18.20;61.00
21214;DHT22;10764;50.850;2.904;2023-02-19T09:13:23;19.90;61.20
21214;DHT22;10764;50.850;2.904;2023-02-19T09:15:50;18.20;61.00
21214;DHT22;10764;50.850;2.904;2023-02-19T09:18:17;21.40;63.00
21214;DHT22;10764;50.850;2.904;2023-02-19T09:20:43;19.90;61.10
21214;DHT22;10764;50.850;2.904;2023-02-19T09:23:10;20.90;61.70
21214;DHT22;10764;50.850;2.904;2023-02-19T09:25:37;20.80;61.70
21214;DHT22;10764;50.850;2.904;2023-02-19T09:28:04;19.30;60.80
21214;DHT22;10764;50.850;2.904;2023-02-19T09:30:30;19.40;60.70
21214;DHT22;10764;50.850;2.904;2023-02-19T09:32:57;20.10;61.20
21214;DHT22;10764;50.850;2.904;2023-02-19T09:35:26;19.60;60.90
21214;DHT22;10764;50.850;2.904;2023-02-19T09:37:52;18.40;60.00
21214;DHT22;10764;50.850;2.904;2023-02-19T09:40:19;20.10;61.20
21214;DHT22;10764;50.850;2.904;2023-02-19T09:42:49;18.90;60.40
21214;DHT22;10764;50.850;2.904;2023-02-19T09:45:22;19.10;60.40
21214;DHT22;10764;50.850;2.904;2023-02-19T09:47:53;18.20;59.80
21214;DHT22;10764;50.850;2.904;2023-02-19T09:50:24;21.40;61.70
21214;DHT22;10764;50.850;2.904;2023-02-19T09:52:57;18.30;59.80
21214;DHT22;10764;50.850;2.904;2023-02-19T09:55:31;18.40;59.80
21214;DHT22;10764;50.850;2.904;2023-02-19T09:58:16;18.90;60.10
21214;DHT22;10764;50.850;2.904;2023-02-19T10:00:46;19.50;60.30
21214;DHT22;10764;50.850;2.904;2023-02-19T10:05:52;20.30;60.80
21214;DHT22;10764;50.850;2.904;2023-02-19T10:08:19;19.30;60.10
21214;DHT22;10764;50.850;2.904;2023-02-19T10:10:47;18.50;59.50
21214;DHT22;10764;50.850;2.904;2023-02-19T10:13:34;18.90;59.50
21214;DHT22;10764;50.850;2.904;2023-02-19T10:16:04;20.20;60.10
21214;DHT22;10764;50.850;2.904;2023-02-19T10:18:37;18.30;59.20
21214;DHT22;10764;50.850;2.904;2023-02-19T10:21:09;20.50;60.30
21214;DHT22;10764;50.850;2.904;2023-02-19T10:23:39;20.00;60.00
21214;DHT22;10764;50.850;2.904;2023-02-19T10:26:06;19.80;59.80
21214;DHT22;10764;50.850;2.904;2023-02-19T10:28:34;18.60;59.20
21214;DHT22;10764;50.850;2.904;2023-02-19T10:31:04;19.20;59.40
21214;DHT22;10764;50.850;2.904;2023-02-19T10:33:56;18.20;58.90
21214;DHT22;10764;50.850;2.904;2023-02-19T10:36:43;18.20;58.80
21214;DHT22;10764;50.850;2.904;2023-02-19T10:41:50;20.00;59.60
21214;DHT22;10764;50.850;2.904;2023-02-19T10:44:19;21.10;60.10
21214;DHT22;10764;50.850;2.904;2023-02-19T10:46:50;18.20;58.70
21214;DHT22;10764;50.850;2.904;2023-02-19T10:51:43;18.20;58.60
21214;DHT22;10764;50.850;2.904;2023-02-19T10:59:49;18.20;58.50
21214;DHT22;10764;50.850;2.904;2023-02-19T11:02:17;18.20;58.40
21214;DHT22;10764;50.850;2.904;2023-02-19T11:07:29;18.20;58.40
21214;DHT22;10764;50.850;2.904;2023-02-19T11:09:56;18.20;58.30
21214;DHT22;10764;50.850;2.904;2023-02-19T11:12:31;18.20;58.30
21214;DHT22;10764;50.850;2.904;2023-02-19T11:15:24;19.60;59.00
21214;DHT22;10764;50.850;2.904;2023-02-19T11:20:50;18.20;58.20
21214;DHT22;10764;50.850;2.904;2023-02-19T11:24:02;18.20;58.20
21214;DHT22;10764;50.850;2.904;2023-02-19T11:26:17;18.20;58.10
21214;DHT22;10764;50.850;2.904;2023-02-19T11:28:45;18.20;58.00
21214;DHT22;10764;50.850;2.904;2023-02-19T11:31:31;18.20;58.00
21214;DHT22;10764;50.850;2.904;2023-02-19T11:36:41;18.20;57.90
21214;DHT22;10764;50.850;2.904;2023-02-19T11:46:44;18.20;57.80
21214;DHT22;10764;50.850;2.904;2023-02-19T11:51:57;20.20;58.70
21214;DHT22;10764;50.850;2.904;2023-02-19T11:59:44;18.20;57.70
21214;DHT22;10764;50.850;2.904;2023-02-19T12:02:18;18.20;57.70
21214;DHT22;10764;50.850;2.904;2023-02-19T12:12:35;18.20;57.60
21214;DHT22;10764;50.850;2.904;2023-02-19T12:20:30;18.20;57.50
21214;DHT22;10764;50.850;2.904;2023-02-19T12:33:26;18.20;57.40
21214;DHT22;10764;50.850;2.904;2023-02-19T12:38:43;18.20;57.40
21214;DHT22;10764;50.850;2.904;2023-02-19T12:41:17;18.20;57.40
21214;DHT22;10764;50.850;2.904;2023-02-19T12:43:49;18.20;57.40
21214;DHT22;10764;50.850;2.904;2023-02-19T12:46:18;18.20;57.40
21214;DHT22;10764;50.850;2.904;2023-02-19T12:48:49;18.20;57.40
21214;DHT22;10764;50.850;2.904;2023-02-19T12:51:54;18.20;57.40
21214;DHT22;10764;50.850;2.904;2023-02-19T12:54:13;18.20;57.40
21214;DHT22;10764;50.850;2.904;2023-02-19T13:09:33;18.20;57.20
21214;DHT22;10764;50.850;2.904;2023-02-19T13:12:07;18.20;57.10
21214;DHT22;10764;50.850;2.904;2023-02-19T13:14:38;18.20;57.10
21214;DHT22;10764;50.850;2.904;2023-02-19T13:17:18;18.20;57.80
21214;DHT22;10764;50.850;2.904;2023-02-19T13:19:47;18.20;57.10
21214;DHT22;10764;50.850;2.904;2023-02-19T13:22:18;18.20;57.00
21214;DHT22;10764;50.850;2.904;2023-02-19T13:25:22;18.20;57.00
21214;DHT22;10764;50.850;2.904;2023-02-19T13:30:27;18.30;56.90
21214;DHT22;10764;50.850;2.904;2023-02-19T13:38:23;18.20;56.80
21214;DHT22;10764;50.850;2.904;2023-02-19T13:40:54;18.20;56.70
21214;DHT22;10764;50.850;2.904;2023-02-19T13:43:43;18.20;56.70
21214;DHT22;10764;50.850;2.904;2023-02-19T13:46:13;18.30;56.70
21214;DHT22;10764;50.850;2.904;2023-02-19T13:48:41;18.20;56.60
21214;DHT22;10764;50.850;2.904;2023-02-19T13:53:47;18.30;56.60
21214;DHT22;10764;50.850;2.904;2023-02-19T13:59:12;18.30;56.60
21214;DHT22;10764;50.850;2.904;2023-02-19T14:04:22;18.30;56.50
21214;DHT22;10764;50.850;2.904;2023-02-19T14:14:37;18.30;56.40
21214;DHT22;10764;50.850;2.904;2023-02-19T14:24:52;18.30;56.30
21214;DHT22;10764;50.850;2.904;2023-02-19T14:27:19;19.00;56.60
21214;DHT22;10764;50.850;2.904;2023-02-19T14:29:47;18.30;56.30
21214;DHT22;10764;50.850;2.904;2023-02-19T14:32:15;18.40;56.30
21214;DHT22;10764;50.850;2.904;2023-02-19T14:34:44;18.30;56.30
21214;DHT22;10764;50.850;2.904;2023-02-19T14:37:16;18.30;56.30
21214;DHT22;10764;50.850;2.904;2023-02-19T14:39:43;18.30;56.30
21214;DHT22;10764;50.850;2.904;2023-02-19T14:42:18;18.30;56.20
21214;DHT22;10764;50.850;2.904;2023-02-19T14:44:49;18.30;56.10
21214;DHT22;10764;50.850;2.904;2023-02-19T14:47:17;18.30;56.10
21214;DHT22;10764;50.850;2.904;2023-02-19T14:49:45;18.30;56.10
21214;DHT22;10764;50.850;2.904;2023-02-19T14:52:16;18.30;56.10
21214;DHT22;10764;50.850;2.904;2023-02-19T14:54:52;18.30;56.00
21214;DHT22;10764;50.850;2.904;2023-02-19T14:57:21;18.30;56.00
21214;DHT22;10764;50.850;2.904;2023-02-19T15:02:19;18.40;55.90
21214;DHT22;10764;50.850;2.904;2023-02-19T15:04:46;18.40;56.50
21214;DHT22;10764;50.850;2.904;2023-02-19T15:07:17;18.40;55.70
21214;DHT22;10764;50.850;2.904;2023-02-19T15:09:51;18.40;55.70
21214;DHT22;10764;50.850;2.904;2023-02-19T15:12:24;18.80;55.90
21214;DHT22;10764;50.850;2.904;2023-02-19T15:14:54;19.80;56.40
21214;DHT22;10764;50.850;2.904;2023-02-19T15:17:31;19.70;56.30
21214;DHT22;10764;50.850;2.904;2023-02-19T15:20:03;18.50;55.70
21214;DHT22;10764;50.850;2.904;2023-02-19T15:22:31;18.40;55.60
21214;DHT22;10764;50.850;2.904;2023-02-19T15:25:02;19.60;56.00
21214;DHT22;10764;50.850;2.904;2023-02-19T15:27:29;20.00;56.20
21214;DHT22;10764;50.850;2.904;2023-02-19T15:29:56;19.70;56.10
21214;DHT22;10764;50.850;2.904;2023-02-19T15:32:25;18.70;55.60
21214;DHT22;10764;50.850;2.904;2023-02-19T15:34:54;19.10;55.80
21214;DHT22;10764;50.850;2.904;2023-02-19T15:37:23;18.40;55.50
21214;DHT22;10764;50.850;2.904;2023-02-19T15:39:52;18.60;55.60
21214;DHT22;10764;50.850;2.904;2023-02-19T15:42:22;19.90;56.20
21214;DHT22;10764;50.850;2.904;2023-02-19T15:50:12;18.40;55.50
21214;DHT22;10764;50.850;2.904;2023-02-19T15:55:47;18.50;55.50
21214;DHT22;10764;50.850;2.904;2023-02-19T15:58:46;18.50;55.40
21214;DHT22;10764;50.850;2.904;2023-02-19T16:01:23;18.50;55.30
21214;DHT22;10764;50.850;2.904;2023-02-19T16:03:53;19.90;55.80
21214;DHT22;10764;50.850;2.904;2023-02-19T16:06:22;18.80;55.20
21214;DHT22;10764;50.850;2.904;2023-02-19T16:09:03;19.00;55.20
21214;DHT22;10764;50.850;2.904;2023-02-19T16:11:44;18.60;54.90
21214;DHT22;10764;50.850;2.904;2023-02-19T16:14:27;20.10;55.60
21214;DHT22;10764;50.850;2.904;2023-02-19T16:19:43;18.60;54.80
21214;DHT22;10764;50.850;2.904;2023-02-19T16:22:15;20.80;55.90
21214;DHT22;10764;50.850;2.904;2023-02-19T16:24:48;20.20;55.60
21214;DHT22;10764;50.850;2.904;2023-02-19T16:27:36;19.70;55.40
21214;DHT22;10764;50.850;2.904;2023-02-19T16:32:41;18.60;54.60
21214;DHT22;10764;50.850;2.904;2023-02-19T16:35:34;19.50;55.70
21214;DHT22;10764;50.850;2.904;2023-02-19T16:38:01;18.60;54.50
21214;DHT22;10764;50.850;2.904;2023-02-19T16:45:30;19.00;55.40
21214;DHT22;10764;50.850;2.904;2023-02-19T16:47:57;21.70;56.20
21214;DHT22;10764;50.850;2.904;2023-02-19T16:50:24;19.60;55.80
21214;DHT22;10764;50.850;2.904;2023-02-19T16:52:57;19.50;55.70
21214;DHT22;10764;50.850;2.904;2023-02-19T16:55:26;18.50;54.60
21214;DHT22;10764;50.850;2.904;2023-02-19T16:57:53;20.70;55.70
21214;DHT22;10764;50.850;2.904;2023-02-19T17:00:28;20.20;55.50
21214;DHT22;10764;50.850;2.904;2023-02-19T17:03:01;18.40;54.60
21214;DHT22;10764;50.850;2.904;2023-02-19T17:05:29;18.40;54.60
21214;DHT22;10764;50.850;2.904;2023-02-19T17:07:56;18.40;54.70
21214;DHT22;10764;50.850;2.904;2023-02-19T17:10:24;19.40;55.10
21214;DHT22;10764;50.850;2.904;2023-02-19T17:12:53;21.40;56.10
21214;DHT22;10764;50.850;2.904;2023-02-19T17:15:21;18.40;54.60
21214;DHT22;10764;50.850;2.904;2023-02-19T17:17:48;19.80;55.30
21214;DHT22;10764;50.850;2.904;2023-02-19T17:22:45;18.40;54.60
21214;DHT22;10764;50.850;2.904;2023-02-19T17:25:11;18.50;54.70
21214;DHT22;10764;50.850;2.904;2023-02-19T17:27:38;19.90;55.40
21214;DHT22;10764;50.850;2.904;2023-02-19T17:30:17;19.20;55.10
21214;DHT22;10764;50.850;2.904;2023-02-19T17:32:45;19.00;54.90
21214;DHT22;10764;50.850;2.904;2023-02-19T17:35:12;19.10;55.00
21214;DHT22;10764;50.850;2.904;2023-02-19T17:37:39;18.30;54.50
21214;DHT22;10764;50.850;2.904;2023-02-19T17:40:27;19.90;55.30
21214;DHT22;10764;50.850;2.904;2023-02-19T17:42:59;19.40;55.00
21214;DHT22;10764;50.850;2.904;2023-02-19T17:45:26;18.40;55.20
21214;DHT22;10764;50.850;2.904;2023-02-19T17:47:53;18.30;54.40
21214;DHT22;10764;50.850;2.904;2023-02-19T17:50:23;19.20;54.90
21214;DHT22;10764;50.850;2.904;2023-02-19T17:52:50;19.30;54.90
21214;DHT22;10764;50.850;2.904;2023-02-19T17:55:17;18.80;54.70
21214;DHT22;10764;50.850;2.904;2023-02-19T17:57:48;20.30;55.40
21214;DHT22;10764;50.850;2.904;2023-02-19T18:00:20;18.30;54.40
21214;DHT22;10764;50.850;2.904;2023-02-19T18:02:48;18.30;54.40
21214;DHT22;10764;50.850;2.904;2023-02-19T18:05:15;18.60;54.50
21214;DHT22;10764;50.850;2.904;2023-02-19T18:07:42;18.30;54.40
21214;DHT22;10764;50.850;2.904;2023-02-19T18:10:09;19.70;55.10
21214;DHT22;10764;50.850;2.904;2023-02-19T18:12:37;18.20;54.40
21214;DHT22;10764;50.850;2.904;2023-02-19T18:15:06;18.90;54.60
21214;DHT22;10764;50.850;2.904;2023-02-19T18:17:34;18.20;54.30
21214;DHT22;10764;50.850;2.904;2023-02-19T18:20:00;18.60;54.50
21214;DHT22;10764;50.850;2.904;2023-02-19T18:22:29;18.20;54.30
21214;DHT22;10764;50.850;2.904;2023-02-19T18:24:57;19.10;54.70
21214;DHT22;10764;50.850;2.904;2023-02-19T18:27:23;18.20;54.20
21214;DHT22;10764;50.850;2.904;2023-02-19T18:29:52;19.50;54.90